< < Back
Terminal Aerodrome Forecast


Current Version              Previous Versions:   1  2  3  4  5  6  7  8  9  

Terminal Aerodrome Forecast

718
FTUS44 KOHX 242100 AAC
TAFCSV
TAF AMD
KCSV 242115Z 2421/2518 31009KT P6SM SCT025 BKN040
     FM250000 34005KT P6SM SCT250
     FM250700 00000KT 2SM BR SCT250
      TEMPO 2509/2512 1/2SM FG SCT003
     FM251330 04003KT P6SM SCT250=



Latest METAR

508
SAUS70 KWBC 251000 RRF
MTRCSV
METAR KCSV 250953Z AUTO 00000KT 1/4SM FG VV001 14/14 A3009 RMK AO2
SLP172 T01440139


USA.gov is the U.S. government's official web portal to all federal, state and local government web resources and services.